Greggton, Texas
Current Conditions -  °F | °C
As of 2:53 PM on Wednesday 26 Nov 2014 (Local Time) from KGGG Reporting Station
Clear Clear  
Wind Chill: 67°   Ceiling: Unl
Heat Index: 67°   Visibility: 10mi
Dew Point: 29°   Wind: 10mph
Humidity: 24%   Direction: 300°WNW
Pressure: 30.13"   Gusts: NA
Location:  32.5893°N, 94.7503°W
Report Text: KGGG 262053Z 30009KT 10SM CLR 19/M02 A3013 RMK AO2 SLP203 T01941017 53005
Loading
Personal Weather Stations






























Interactive Weather Map New forecast layout! Learn more

10-Day Weather Forecast

Advertisements
Track Severe Weather on mobile